Time;durP1;ratioP1;P1;durP2;ratioP2;P2;SDS_P1;SDS_P2;PMS_P1;PMS_P2;Temp;Humidity;BMP_temperature;BMP_pressure;BME280_temperature;BME280_humidity;BME280_pressure;Samples;Min_cycle;Max_cycle;Signal;HPM_P1;HPM_P2
2021/09/24 00:02:23;;;;;;;;;16.25;14.25;;;;;15.99;72.78;101774.22;4991066;28;45529;-71
2021/09/24 00:04:49;;;;;;;;;15.50;13.25;;;;;15.97;72.83;101773.41;4990017;28;46429;-71
2021/09/24 00:07:14;;;;;;;;;22.00;18.75;;;;;15.91;72.94;101772.78;4988877;28;45475;-71
2021/09/24 00:09:39;;;;;;;;;22.25;17.00;;;;;15.85;73.06;101767.78;4988077;28;45784;-71
2021/09/24 00:12:05;;;;;;;;;21.50;17.75;;;;;15.81;72.98;101771.50;4995023;28;45551;-71
2021/09/24 00:14:30;;;;;;;;;22.00;18.50;;;;;15.76;73.10;101772.66;4989475;28;46242;-71
2021/09/24 00:16:56;;;;;;;;;19.25;16.25;;;;;15.74;73.10;101759.50;4990428;28;45339;-71
2021/09/24 00:19:21;;;;;;;;;17.50;16.75;;;;;15.61;73.13;101750.41;4992109;28;45547;-71
2021/09/24 00:21:47;;;;;;;;;20.25;17.50;;;;;15.69;73.31;101763.31;4992792;28;45412;-71
2021/09/24 00:24:12;;;;;;;;;19.25;19.25;;;;;15.53;73.51;101741.94;4987469;28;45596;-71
2021/09/24 00:26:37;;;;;;;;;18.25;15.25;;;;;15.47;73.39;101740.44;4986984;28;60789;-71
2021/09/24 00:29:03;;;;;;;;;22.25;17.25;;;;;15.58;73.91;101763.78;4989488;28;45439;-71
2021/09/24 00:31:28;;;;;;;;;18.75;18.25;;;;;15.55;73.77;101767.41;4990417;28;45475;-71
2021/09/24 00:33:53;;;;;;;;;18.75;16.25;;;;;15.52;73.96;101764.06;4991901;28;46494;-71
2021/09/24 00:36:19;;;;;;;;;18.50;16.00;;;;;15.51;73.90;101759.72;4979820;28;45344;-71
2021/09/24 00:38:44;;;;;;;;;16.50;13.75;;;;;15.50;74.16;101757.97;4988506;28;45374;-71
2021/09/24 00:41:10;;;;;;;;;17.50;15.75;;;;;15.47;74.23;101744.88;4990412;28;45544;-71
2021/09/24 00:43:35;;;;;;;;;16.50;14.50;;;;;15.35;74.17;101731.28;4996853;28;45437;-71
2021/09/24 00:46:02;;;;;;;;;17.00;14.25;;;;;15.43;74.27;101746.81;4985518;28;45400;-71
2021/09/24 00:48:28;;;;;;;;;14.50;14.50;;;;;15.39;74.29;101745.22;4983804;28;45362;-71
2021/09/24 00:50:53;;;;;;;;;17.25;14.50;;;;;15.38;74.48;101740.88;4995750;28;45234;-71
2021/09/24 00:53:19;;;;;;;;;21.25;13.50;;;;;15.34;74.66;101734.84;4996152;28;46407;-71
2021/09/24 00:55:44;;;;;;;;;19.50;14.50;;;;;15.17;74.62;101718.91;4986861;28;45590;-71
2021/09/24 00:58:10;;;;;;;;;16.25;14.75;;;;;15.26;74.59;101731.72;4999647;28;45317;-71
2021/09/24 01:00:35;;;;;;;;;19.25;17.25;;;;;15.21;74.54;101725.78;4997061;28;45502;-71
2021/09/24 01:03:00;;;;;;;;;21.50;16.00;;;;;15.23;74.80;101736.28;4995542;28;48818;-71
2021/09/24 01:05:26;;;;;;;;;16.00;15.00;;;;;15.21;74.58;101736.38;4994526;28;45575;-71
2021/09/24 01:07:53;;;;;;;;;19.25;15.75;;;;;15.17;75.08;101726.84;4995282;28;45305;-71
2021/09/24 01:10:19;;;;;;;;;13.50;12.25;;;;;15.13;74.71;101723.47;4985487;28;45530;-71
2021/09/24 01:12:44;;;;;;;;;17.50;16.75;;;;;15.16;74.99;101730.44;4998607;28;45522;-71
2021/09/24 01:15:12;;;;;;;;;21.25;15.00;;;;;15.14;75.15;101727.00;4984306;28;45377;-71
2021/09/24 01:17:38;;;;;;;;;20.50;17.50;;;;;15.12;75.11;101731.50;4993826;28;45388;-71
2021/09/24 01:20:06;;;;;;;;;21.50;18.75;;;;;15.10;75.32;101730.72;4995759;28;45471;-71
2021/09/24 01:22:32;;;;;;;;;26.50;20.25;;;;;15.10;75.46;101730.72;4995251;28;45521;-71
2021/09/24 01:24:57;;;;;;;;;20.75;18.25;;;;;15.12;75.63;101728.84;4999866;28;45552;-71
2021/09/24 01:27:23;;;;;;;;;20.75;19.50;;;;;15.14;75.72;101721.72;4996466;28;45413;-71
2021/09/24 01:29:51;;;;;;;;;24.00;21.00;;;;;15.19;75.91;101729.41;4985662;28;45526;-71
2021/09/24 01:32:17;;;;;;;;;32.50;23.00;;;;;15.22;75.74;101724.84;4990764;28;45834;-71
2021/09/24 01:34:42;;;;;;;;;23.75;22.00;;;;;15.30;76.06;101727.16;4998301;28;45258;-71
2021/09/24 01:37:07;;;;;;;;;32.00;29.00;;;;;15.37;76.01;101725.91;4984323;28;45779;-71
2021/09/24 01:39:33;;;;;;;;;31.25;27.75;;;;;15.46;76.16;101725.50;4996324;28;45411;-71
2021/09/24 01:41:58;;;;;;;;;31.75;28.25;;;;;15.45;76.03;101707.00;4995932;28;53873;-71
2021/09/24 01:44:23;;;;;;;;;39.00;32.00;;;;;15.58;76.28;101724.03;4990306;28;45226;-71
2021/09/24 01:46:49;;;;;;;;;33.75;30.75;;;;;15.67;76.56;101726.28;4986532;28;45389;-71
2021/09/24 01:49:14;;;;;;;;;36.75;29.25;;;;;15.75;76.34;101725.91;4993158;28;45396;-71
2021/09/24 01:51:44;;;;;;;;;35.00;29.50;;;;;15.81;75.99;101726.44;4994088;28;45678;-71
2021/09/24 01:54:11;;;;;;;;;33.00;31.00;;;;;15.86;76.11;101727.09;4988037;28;45964;-71
2021/09/24 01:56:36;;;;;;;;;41.00;33.25;;;;;15.94;76.30;101728.50;4989021;28;45489;-71
2021/09/24 01:59:03;;;;;;;;;36.00;31.50;;;;;16.01;76.39;101735.22;4992226;28;45388;-71
2021/09/24 02:01:29;;;;;;;;;38.50;31.75;;;;;16.07;76.10;101737.56;4996440;28;46601;-71
2021/09/24 02:03:54;;;;;;;;;38.75;33.25;;;;;16.15;76.27;101735.41;4979283;28;45339;-71
2021/09/24 02:06:20;;;;;;;;;37.50;29.75;;;;;16.20;75.88;101736.03;4983015;28;45525;-71
2021/09/24 02:08:45;;;;;;;;;34.00;30.00;;;;;16.25;75.81;101734.00;4990634;28;54970;-71
2021/09/24 02:11:11;;;;;;;;;33.00;28.00;;;;;16.29;75.80;101732.06;4991135;28;46417;-71
2021/09/24 02:13:41;;;;;;;;;32.00;28.50;;;;;16.39;75.73;101746.53;4992197;28;45463;-71
2021/09/24 02:16:08;;;;;;;;;27.00;25.75;;;;;16.41;75.53;101732.28;4987239;28;45332;-71
2021/09/24 02:18:33;;;;;;;;;33.00;26.25;;;;;16.45;75.41;101735.63;4980030;28;45364;-71
2021/09/24 02:20:59;;;;;;;;;33.25;25.75;;;;;16.47;75.57;101736.41;4992138;28;48797;-71
2021/09/24 02:23:24;;;;;;;;;28.25;23.50;;;;;16.50;75.24;101722.13;4991877;28;45807;-71
2021/09/24 02:25:49;;;;;;;;;31.00;22.75;;;;;16.52;75.63;101733.50;4984587;28;45318;-71
2021/09/24 02:28:15;;;;;;;;;27.50;26.00;;;;;16.53;75.51;101727.25;4994572;28;48928;-71
2021/09/24 02:30:40;;;;;;;;;24.00;21.50;;;;;16.54;75.09;101726.31;4993467;28;46598;-72
2021/09/24 02:33:06;;;;;;;;;24.25;22.00;;;;;16.52;75.12;101722.91;4980180;28;51404;-71
2021/09/24 02:35:31;;;;;;;;;23.50;20.75;;;;;16.52;75.70;101725.56;4989229;28;45499;-71
2021/09/24 02:37:57;;;;;;;;;24.75;18.75;;;;;16.54;75.44;101723.66;4991659;28;45402;-71
2021/09/24 02:40:22;;;;;;;;;27.25;21.25;;;;;16.54;74.86;101721.88;4992321;28;45392;-71
2021/09/24 02:42:47;;;;;;;;;18.50;18.50;;;;;16.52;75.19;101721.09;4994044;28;45611;-71
2021/09/24 02:45:13;;;;;;;;;21.75;18.50;;;;;16.53;75.15;101721.97;4978957;28;45282;-71
2021/09/24 02:47:38;;;;;;;;;16.00;15.00;;;;;16.49;75.46;101718.59;4983516;28;45414;-71
2021/09/24 02:50:08;;;;;;;;;16.75;14.25;;;;;16.54;74.31;101721.00;4984468;28;47908;-71
2021/09/24 02:52:34;;;;;;;;;15.25;13.25;;;;;16.51;75.47;101715.88;5009815;28;45844;-71
2021/09/24 02:55:00;;;;;;;;;21.75;18.00;;;;;16.52;75.40;101713.13;4980713;28;45373;-71
2021/09/24 02:57:25;;;;;;;;;18.75;15.50;;;;;16.56;75.78;101714.69;4992434;28;45507;-71
2021/09/24 02:59:51;;;;;;;;;17.00;17.00;;;;;16.60;75.67;101724.22;4990487;28;45528;-71
2021/09/24 03:02:17;;;;;;;;;19.25;14.25;;;;;16.61;75.74;101710.00;4991111;28;45382;-71
2021/09/24 03:04:42;;;;;;;;;18.50;15.00;;;;;16.64;75.52;101719.59;4992340;28;45448;-71
2021/09/24 03:07:08;;;;;;;;;17.00;13.25;;;;;16.69;75.71;101720.22;4980597;28;45619;-71
2021/09/24 03:09:33;;;;;;;;;15.75;14.25;;;;;16.70;75.66;101713.94;4992550;28;46342;-71
2021/09/24 03:11:58;;;;;;;;;23.75;14.25;;;;;16.75;75.82;101719.91;4983402;28;45562;-71
2021/09/24 03:14:24;;;;;;;;;14.75;12.25;;;;;16.77;75.46;101712.75;4980834;28;45617;-71
2021/09/24 03:16:49;;;;;;;;;23.25;17.00;;;;;16.80;75.73;101717.88;4982226;28;45455;-71
2021/09/24 03:19:19;;;;;;;;;18.75;16.25;;;;;16.81;75.47;101714.31;4994233;28;45426;-71
2021/09/24 03:21:45;;;;;;;;;14.00;14.00;;;;;16.83;75.34;101714.22;4993230;28;45347;-71
2021/09/24 03:24:10;;;;;;;;;19.75;15.75;;;;;16.83;75.33;101698.28;4987424;28;45433;-71
2021/09/24 03:26:36;;;;;;;;;15.00;12.00;;;;;16.86;75.37;101704.28;4988115;28;45455;-71
2021/09/24 03:29:01;;;;;;;;;19.50;16.50;;;;;16.86;75.85;101700.75;4990537;28;46761;-71
2021/09/24 03:31:27;;;;;;;;;16.75;13.75;;;;;16.85;75.72;101694.59;4992045;28;45491;-71
2021/09/24 03:33:52;;;;;;;;;20.75;15.25;;;;;16.89;75.45;101698.81;4993875;28;45293;-71
2021/09/24 03:36:17;;;;;;;;;21.25;18.00;;;;;16.92;75.59;101701.31;4978022;28;45528;-71
2021/09/24 03:38:43;;;;;;;;;18.25;16.00;;;;;16.93;75.48;101699.50;4988448;28;45491;-71
2021/09/24 03:41:08;;;;;;;;;16.00;13.25;;;;;16.93;75.20;101700.34;4989806;28;45667;-71
2021/09/24 03:43:34;;;;;;;;;17.25;14.25;;;;;16.93;75.32;101691.53;4990704;28;45337;-71
2021/09/24 03:45:59;;;;;;;;;19.00;14.75;;;;;16.92;75.49;101688.03;4980087;28;45473;-71
2021/09/24 03:48:24;;;;;;;;;12.75;12.50;;;;;16.94;75.28;101685.28;4980551;28;46267;-71
2021/09/24 03:50:50;;;;;;;;;16.00;13.50;;;;;16.95;75.51;101701.13;4990069;28;45321;-71
2021/09/24 03:53:15;;;;;;;;;15.75;13.75;;;;;16.95;75.07;101694.94;4989842;28;45750;-71
2021/09/24 03:55:40;;;;;;;;;22.75;20.00;;;;;16.96;75.40;101696.66;4981715;28;56058;-71
2021/09/24 03:58:06;;;;;;;;;31.25;24.25;;;;;16.93;75.57;101689.72;4979055;28;46389;-71
2021/09/24 04:00:31;;;;;;;;;21.50;19.25;;;;;16.97;75.46;101693.09;4991790;28;45442;-71
2021/09/24 04:02:57;;;;;;;;;22.25;20.00;;;;;16.95;75.55;101687.84;4991075;28;45610;-71
2021/09/24 04:05:22;;;;;;;;;22.50;22.00;;;;;16.98;75.43;101702.75;4989941;28;45353;-71
2021/09/24 04:07:47;;;;;;;;;26.75;21.25;;;;;16.98;75.48;101693.94;4989281;28;49346;-71
2021/09/24 04:10:13;;;;;;;;;30.75;22.75;;;;;16.95;75.39;101684.34;4993505;28;45418;-71
2021/09/24 04:12:38;;;;;;;;;29.00;25.75;;;;;16.99;75.16;101693.00;4989995;28;45490;-71
2021/09/24 04:15:04;;;;;;;;;30.00;25.50;;;;;16.98;75.42;101691.28;4979045;28;45269;-71
2021/09/24 04:17:30;;;;;;;;;31.50;24.75;;;;;16.99;75.86;101698.31;4986561;28;45441;-71
2021/09/24 04:19:55;;;;;;;;;26.25;24.25;;;;;16.99;75.64;101696.50;4989538;28;45742;-71
2021/09/24 04:22:21;;;;;;;;;23.75;21.50;;;;;17.02;75.72;101690.16;4992719;28;45477;-71
2021/09/24 04:24:47;;;;;;;;;27.25;24.25;;;;;17.02;75.86;101698.13;4984689;28;47409;-71
2021/09/24 04:27:12;;;;;;;;;30.00;22.50;;;;;17.01;75.77;101694.59;4992539;28;45361;-71
2021/09/24 04:29:37;;;;;;;;;21.00;17.75;;;;;17.03;75.29;101689.25;4991731;28;47112;-71
2021/09/24 04:32:03;;;;;;;;;25.25;20.25;;;;;17.03;75.58;101684.78;4990002;28;45493;-71
2021/09/24 04:34:28;;;;;;;;;22.00;19.75;;;;;17.03;75.59;101686.59;4989784;28;45488;-71
2021/09/24 04:36:53;;;;;;;;;26.50;21.25;;;;;17.06;75.79;101686.41;4987937;28;56529;-71
2021/09/24 04:39:19;;;;;;;;;22.50;15.50;;;;;16.99;75.37;101671.75;5002421;28;57045;-71
2021/09/24 04:41:44;;;;;;;;;25.50;19.00;;;;;17.07;75.08;101680.13;4978743;28;45666;-71
2021/09/24 04:44:09;;;;;;;;;24.25;18.75;;;;;17.05;75.29;101690.84;4982573;28;49365;-71
2021/09/24 04:46:35;;;;;;;;;26.00;21.50;;;;;17.06;75.15;101699.69;4979917;28;46597;-72
2021/09/24 04:49:00;;;;;;;;;21.25;14.75;;;;;17.06;75.44;101697.88;4980871;28;45399;-71
2021/09/24 04:51:26;;;;;;;;;20.50;18.00;;;;;17.08;74.73;101698.66;4986673;28;45460;-72
2021/09/24 04:53:51;;;;;;;;;22.50;19.00;;;;;17.08;75.12;101703.13;4989695;28;46576;-71
2021/09/24 04:56:16;;;;;;;;;20.00;15.33;;;;;17.05;75.67;101701.47;4988074;28;65387;-71
2021/09/24 04:58:42;;;;;;;;;22.00;20.00;;;;;17.04;75.48;101699.78;4990119;28;45305;-71
2021/09/24 05:01:08;;;;;;;;;18.25;16.25;;;;;17.02;75.34;101682.19;4990647;28;45552;-71
2021/09/24 05:03:33;;;;;;;;;22.75;17.00;;;;;17.04;75.71;101689.16;4983067;28;45408;-71
2021/09/24 05:05:58;;;;;;;;;20.75;17.50;;;;;17.06;75.46;101691.72;4982780;28;45409;-71
2021/09/24 05:08:24;;;;;;;;;23.50;18.25;;;;;17.06;75.71;101697.88;4984725;28;50835;-71
2021/09/24 05:10:49;;;;;;;;;20.00;18.25;;;;;17.08;75.64;101701.31;4988705;28;45341;-72
2021/09/24 05:13:14;;;;;;;;;18.00;15.75;;;;;17.05;75.52;101695.31;4991956;28;45823;-72
2021/09/24 05:15:40;;;;;;;;;25.00;18.25;;;;;17.08;75.60;101690.69;5007749;28;45760;-71
2021/09/24 05:18:06;;;;;;;;;26.00;18.25;;;;;16.93;75.43;101668.50;4989952;28;45468;-71
2021/09/24 05:20:32;;;;;;;;;19.75;16.00;;;;;17.10;75.23;101691.47;4987619;28;45479;-71
2021/09/24 05:22:58;;;;;;;;;26.50;18.00;;;;;17.10;75.34;101686.16;4990694;28;45404;-71
2021/09/24 05:25:23;;;;;;;;;14.75;14.50;;;;;17.09;75.02;101681.78;4988381;28;46046;-71
2021/09/24 05:27:49;;;;;;;;;23.75;18.00;;;;;17.13;75.22;101693.97;4992474;28;45431;-71
2021/09/24 05:30:15;;;;;;;;;22.75;18.25;;;;;17.13;75.28;101682.47;4983824;28;45444;-70
2021/09/24 05:32:40;;;;;;;;;23.75;21.25;;;;;17.11;75.29;101685.19;4984599;28;45490;-70
2021/09/24 05:35:07;;;;;;;;;28.00;22.00;;;;;17.07;75.39;101677.47;4985947;28;45397;-70
2021/09/24 05:37:33;;;;;;;;;21.50;21.00;;;;;17.07;75.17;101675.72;4982843;28;45725;-71
2021/09/24 05:39:58;;;;;;;;;23.50;19.75;;;;;17.00;75.57;101676.13;4996919;28;45511;-71
2021/09/24 05:42:24;;;;;;;;;29.75;25.00;;;;;17.02;75.51;101682.19;4992930;28;45333;-71
2021/09/24 05:44:49;;;;;;;;;26.25;23.25;;;;;17.03;75.29;101678.63;4992120;28;45469;-70
2021/09/24 05:47:14;;;;;;;;;25.00;20.25;;;;;17.03;75.46;101682.13;4992486;28;46017;-71
2021/09/24 05:49:40;;;;;;;;;24.75;22.75;;;;;17.03;75.59;101679.47;4992782;28;45379;-71
2021/09/24 05:52:05;;;;;;;;;26.00;20.50;;;;;17.01;75.26;101676.03;4994127;28;45590;-71
2021/09/24 05:54:31;;;;;;;;;21.50;18.50;;;;;17.02;75.25;101671.56;4988527;28;46399;-71
2021/09/24 05:56:57;;;;;;;;;23.50;19.50;;;;;17.05;75.51;101679.38;4988538;28;45513;-71
2021/09/24 05:59:22;;;;;;;;;24.50;19.00;;;;;17.03;75.24;101673.31;4987635;28;45531;-71
2021/09/24 06:01:48;;;;;;;;;21.50;16.00;;;;;17.08;75.35;101679.22;4984516;28;45484;-72
2021/09/24 06:04:18;;;;;;;;;27.00;22.50;;;;;17.08;75.36;101682.72;4993877;28;45938;-72
2021/09/24 06:06:44;;;;;;;;;23.75;19.75;;;;;17.08;75.24;101673.91;5009234;28;45392;-71
2021/09/24 06:09:09;;;;;;;;;24.25;20.00;;;;;17.13;74.94;101690.44;4992176;28;45674;-71
2021/09/24 06:11:35;;;;;;;;;21.75;17.50;;;;;17.12;75.08;101689.59;4991755;28;45298;-71
2021/09/24 06:14:01;;;;;;;;;23.75;19.75;;;;;17.10;74.88;101685.28;4986910;28;46127;-72
2021/09/24 06:16:26;;;;;;;;;21.50;17.25;;;;;17.10;75.07;101686.16;4990517;28;46079;-71
2021/09/24 06:18:52;;;;;;;;;23.75;21.00;;;;;17.09;74.90;101681.78;4995134;28;45308;-72
2021/09/24 06:21:18;;;;;;;;;19.75;18.75;;;;;17.11;74.97;101679.88;5008481;28;45527;-73
2021/09/24 06:23:45;;;;;;;;;20.25;19.00;;;;;17.14;74.83;101673.56;4988585;28;46458;-71
2021/09/24 06:26:10;;;;;;;;;23.50;21.25;;;;;17.19;75.15;101682.13;4992269;28;45488;-71
2021/09/24 06:28:36;;;;;;;;;19.25;17.50;;;;;17.21;75.05;101677.59;4989509;28;45608;-71
2021/09/24 06:31:03;;;;;;;;;23.50;19.25;;;;;17.26;74.69;101678.19;4996214;28;45515;-71
2021/09/24 06:33:28;;;;;;;;;28.75;25.75;;;;;17.32;74.63;101669.88;4989802;28;45423;-71
2021/09/24 06:35:54;;;;;;;;;23.75;19.50;;;;;17.39;74.33;101676.56;4986192;28;45498;-71
2021/09/24 06:38:19;;;;;;;;;21.50;17.25;;;;;17.48;74.37;101683.13;4988873;28;45405;-71
2021/09/24 06:40:44;;;;;;;;;23.75;18.50;;;;;17.52;73.89;101681.19;4994608;28;45414;-71
2021/09/24 06:43:10;;;;;;;;;20.00;16.50;;;;;17.59;74.38;101678.09;4991626;28;46172;-71
2021/09/24 06:45:36;;;;;;;;;24.75;20.25;;;;;17.63;74.11;101678.75;4996459;28;45352;-71
2021/09/24 06:48:02;;;;;;;;;20.25;18.00;;;;;17.71;73.65;101687.16;4994948;28;45534;-71
2021/09/24 06:50:28;;;;;;;;;24.00;21.50;;;;;17.71;73.58;101679.19;4994654;28;45384;-71
2021/09/24 06:52:53;;;;;;;;;26.00;20.75;;;;;17.78;73.14;101682.38;4985600;28;45343;-71
2021/09/24 06:55:22;;;;;;;;;24.00;22.00;;;;;17.82;73.23;101683.91;5007512;28;45475;-71
2021/09/24 06:57:48;;;;;;;;;27.00;22.25;;;;;17.85;73.34;101684.56;4981811;28;49876;-71
2021/09/24 07:00:14;;;;;;;;;22.25;18.25;;;;;17.91;73.42;101684.22;4983975;28;45380;-71
2021/09/24 07:02:40;;;;;;;;;26.25;21.75;;;;;18.00;72.98;101696.13;4983533;28;46179;-71
2021/09/24 07:05:06;;;;;;;;;20.75;18.25;;;;;18.05;72.93;101685.22;4982277;28;45831;-71
2021/09/24 07:07:31;;;;;;;;;22.75;21.00;;;;;18.11;72.54;101682.19;4978037;28;45652;-71
2021/09/24 07:09:58;;;;;;;;;24.25;20.50;;;;;18.09;72.68;101684.09;4993074;28;45586;-71
2021/09/24 07:12:24;;;;;;;;;23.75;20.00;;;;;18.12;72.44;101691.91;4982921;28;45664;-71
2021/09/24 07:14:49;;;;;;;;;26.25;20.00;;;;;18.06;72.21;101662.97;4989905;28;45826;-71
2021/09/24 07:17:14;;;;;;;;;32.00;24.25;;;;;18.23;72.70;101681.47;4990521;28;49907;-71
2021/09/24 07:19:41;;;;;;;;;31.00;24.00;;;;;18.38;72.11;101685.00;4984347;28;45449;-71
2021/09/24 07:22:07;;;;;;;;;32.00;22.00;;;;;18.59;72.20;101690.84;4989409;28;46361;-71
2021/09/24 07:24:32;;;;;;;;;26.50;20.25;;;;;18.77;72.19;101671.06;4986427;28;45454;-71
2021/09/24 07:26:58;;;;;;;;;25.25;20.25;;;;;19.05;71.26;101678.16;4994583;28;45789;-71
2021/09/24 07:29:23;;;;;;;;;28.00;26.75;;;;;19.29;70.46;101684.59;4985127;28;45520;-71
2021/09/24 07:31:49;;;;;;;;;26.50;22.25;;;;;19.47;69.75;101690.56;4980968;28;47298;-71
2021/09/24 07:34:14;;;;;;;;;24.50;23.50;;;;;19.54;69.05;101680.34;4992910;28;45357;-71
2021/09/24 07:36:39;;;;;;;;;25.50;22.25;;;;;19.59;68.79;101688.94;4979647;28;45426;-70
2021/09/24 07:39:06;;;;;;;;;27.25;19.00;;;;;19.58;68.98;101686.34;4985262;28;45533;-71
2021/09/24 07:41:32;;;;;;;;;30.00;21.75;;;;;19.46;68.93;101680.84;4984354;28;46553;-71
2021/09/24 07:43:59;;;;;;;;;28.25;23.25;;;;;19.40;69.29;101677.72;4980271;28;45475;-71
2021/09/24 07:46:25;;;;;;;;;25.75;20.25;;;;;19.44;69.37;101682.75;4978602;28;45648;-71
2021/09/24 07:48:51;;;;;;;;;24.00;19.25;;;;;19.45;68.65;101678.28;4993304;28;45370;-71
2021/09/24 07:51:17;;;;;;;;;24.50;21.25;;;;;19.58;68.94;101679.19;4989531;28;45531;-71
2021/09/24 07:53:43;;;;;;;;;83.75;69.50;;;;;19.62;68.70;101677.19;4983572;28;45318;-71
2021/09/24 07:56:09;;;;;;;;;23.75;20.50;;;;;19.89;68.34;101680.72;4991940;28;45570;-71
2021/09/24 07:58:38;;;;;;;;;26.50;22.75;;;;;20.15;67.92;101680.75;4985594;28;45505;-71
2021/09/24 08:01:04;;;;;;;;;23.00;21.50;;;;;21.43;68.27;101671.69;4988318;28;47196;-71
2021/09/24 08:03:29;;;;;;;;;26.00;19.25;;;;;22.84;65.23;101682.31;4990204;28;46169;-71
2021/09/24 08:05:54;;;;;;;;;23.00;20.00;;;;;23.60;62.78;101689.53;4987037;28;45332;-71
2021/09/24 08:08:20;;;;;;;;;24.00;19.50;;;;;25.01;61.02;101685.50;4988144;28;45526;-71
2021/09/24 08:10:45;;;;;;;;;20.00;18.25;;;;;26.47;57.79;101683.78;4992632;28;45958;-71
2021/09/24 08:13:11;;;;;;;;;22.25;20.75;;;;;27.88;55.85;101686.13;4993265;28;45475;-70
2021/09/24 08:15:42;;;;;;;;;21.25;20.50;;;;;29.27;53.64;101691.38;4994449;28;45383;-71
2021/09/24 08:18:07;;;;;;;;;26.75;20.50;;;;;30.17;50.31;101686.09;4993218;28;45526;-71
2021/09/24 08:20:33;;;;;;;;;22.50;17.25;;;;;30.48;48.52;101686.22;4985822;28;46138;-71
2021/09/24 08:22:58;;;;;;;;;20.25;17.75;;;;;29.67;47.71;101702.50;5001000;28;45474;-71
2021/09/24 08:25:23;;;;;;;;;16.25;15.50;;;;;28.74;48.25;101697.06;4994049;28;45564;-71
2021/09/24 08:27:49;;;;;;;;;21.25;16.50;;;;;28.14;48.27;101703.25;4994355;28;45400;-71
2021/09/24 08:30:17;;;;;;;;;19.25;16.75;;;;;27.65;49.47;101700.06;4982637;28;45423;-71
2021/09/24 08:32:43;;;;;;;;;20.50;17.50;;;;;27.30;50.33;101696.34;4991783;28;46426;-71
2021/09/24 08:35:11;;;;;;;;;19.75;15.75;;;;;26.92;49.86;101707.31;4994396;28;45245;-71
2021/09/24 08:37:38;;;;;;;;;18.00;16.25;;;;;26.43;50.52;101712.88;4992359;28;45464;-71
2021/09/24 08:40:06;;;;;;;;;21.25;17.50;;;;;25.99;51.30;101700.84;4982103;28;45874;-71
2021/09/24 08:42:33;;;;;;;;;20.75;18.00;;;;;25.76;51.44;101697.59;5002281;28;45572;-71
2021/09/24 08:44:58;;;;;;;;;34.75;26.25;;;;;26.76;51.38;101692.63;4994183;28;45504;-71
2021/09/24 08:47:27;;;;;;;;;23.00;20.25;;;;;27.83;51.75;101697.44;4993276;28;45546;-71
2021/09/24 08:49:53;;;;;;;;;20.75;19.50;;;;;30.70;48.88;101695.53;4992508;28;46502;-71
2021/09/24 08:52:18;;;;;;;;;28.75;23.50;;;;;33.37;44.35;101702.63;4984924;28;45448;-71
2021/09/24 08:54:43;;;;;;;;;17.50;15.00;;;;;35.58;41.90;101702.09;4993798;28;45504;-71
2021/09/24 08:57:16;;;;;;;;;22.50;18.00;;;;;37.68;39.09;101704.56;4993048;28;53960;-71
2021/09/24 08:59:41;;;;;;;;;20.75;17.75;;;;;39.35;37.42;101708.16;4995013;28;48744;-71
2021/09/24 09:02:09;;;;;;;;;20.25;18.00;;;;;40.24;34.07;101705.50;4987607;28;45476;-71
2021/09/24 09:04:41;;;;;;;;;23.25;17.25;;;;;40.31;32.61;101703.47;4985884;28;45589;-71
2021/09/24 09:07:12;;;;;;;;;17.25;16.00;;;;;39.15;32.27;101697.44;4981756;28;45603;-71
2021/09/24 09:09:40;;;;;;;;;20.75;17.50;;;;;39.08;32.80;101702.16;4997163;28;50699;-71
2021/09/24 09:12:20;;;;;;;;;19.25;17.75;;;;;38.81;32.16;101695.34;4995761;28;46956;-72
2021/09/24 09:15:04;;;;;;;;;20.00;18.00;;;;;37.94;32.52;101702.72;4989242;28;45408;-71
2021/09/24 09:17:41;;;;;;;;;17.25;15.75;;;;;36.61;33.24;101708.84;4996044;28;45531;-72
2021/09/24 09:20:30;;;;;;;;;15.75;14.50;;;;;34.84;33.81;101702.84;4996293;28;47763;-72
2021/09/24 09:22:58;;;;;;;;;18.00;16.00;;;;;33.21;35.57;101718.16;4993850;28;45235;-71
2021/09/24 09:25:32;;;;;;;;;17.25;14.50;;;;;31.56;36.99;101708.19;4995542;28;45838;-72
2021/09/24 09:28:21;;;;;;;;;16.00;14.00;;;;;30.42;38.25;101703.19;4981876;28;45570;-72
2021/09/24 09:30:46;;;;;;;;;15.75;14.50;;;;;29.44;40.13;101691.41;4980195;28;46381;-71
2021/09/24 09:33:16;;;;;;;;;18.25;13.75;;;;;28.83;41.07;101704.22;4996512;28;45418;-71
2021/09/24 09:35:47;;;;;;;;;13.75;12.50;;;;;28.24;41.64;101708.53;4993099;28;45535;-71
2021/09/24 09:38:42;;;;;;;;;15.25;14.25;;;;;27.70;42.81;101702.31;4995388;28;45403;-71
2021/09/24 09:41:12;;;;;;;;;13.75;12.00;;;;;27.27;43.52;101706.59;4995272;28;47119;-71
2021/09/24 09:43:41;;;;;;;;;15.75;13.75;;;;;26.89;44.49;101703.06;4987795;28;45555;-71
2021/09/24 09:46:11;;;;;;;;;15.00;13.25;;;;;26.62;44.54;101698.47;4988585;28;45451;-71
2021/09/24 09:48:38;;;;;;;;;14.25;13.25;;;;;26.32;45.80;101704.09;4996073;28;45453;-72
2021/09/24 09:51:04;;;;;;;;;16.25;13.75;;;;;26.07;45.63;101695.59;4994882;28;45580;-71
2021/09/24 09:53:30;;;;;;;;;16.25;16.00;;;;;26.01;46.21;101697.03;4996058;28;45643;-71
2021/09/24 09:56:00;;;;;;;;;17.00;12.75;;;;;26.01;46.84;101697.03;4995098;28;45451;-71
2021/09/24 09:58:30;;;;;;;;;15.75;13.00;;;;;26.20;46.95;101700.69;4996172;28;45511;-72
2021/09/24 10:01:09;;;;;;;;;16.00;12.25;;;;;26.41;46.34;101695.94;4989698;28;47195;-71
2021/09/24 10:03:37;;;;;;;;;56.25;45.75;;;;;26.64;46.88;101688.41;4988125;28;45764;-71
2021/09/24 10:06:18;;;;;;;;;16.50;12.50;;;;;26.86;46.07;101686.34;4995589;28;45503;-71
2021/09/24 10:08:43;;;;;;;;;15.50;15.50;;;;;26.89;45.54;101672.56;4984332;28;45408;-71
2021/09/24 10:11:13;;;;;;;;;15.75;12.00;;;;;26.76;46.11;101681.81;4989879;28;47145;-72
2021/09/24 10:13:51;;;;;;;;;14.75;12.25;;;;;26.47;46.33;101673.00;4986788;28;45623;-71
2021/09/24 10:16:17;;;;;;;;;15.00;13.00;;;;;26.36;46.89;101682.06;4996053;28;45531;-72
2021/09/24 10:18:42;;;;;;;;;14.75;13.25;;;;;26.52;46.90;101678.81;4995250;28;45302;-71
2021/09/24 10:21:07;;;;;;;;;18.25;13.00;;;;;26.56;46.42;101682.88;4996419;28;46875;-72
2021/09/24 10:23:33;;;;;;;;;19.00;14.50;;;;;26.52;46.81;101687.75;4995486;28;45726;-71
2021/09/24 10:26:05;;;;;;;;;16.00;15.50;;;;;26.43;46.82;101687.78;4995108;28;45368;-71
2021/09/24 10:28:34;;;;;;;;;19.25;14.00;;;;;26.37;46.61;101672.16;4995801;28;45501;-71
2021/09/24 10:31:01;;;;;;;;;15.50;10.50;;;;;26.43;47.41;101677.84;4995049;28;45593;-71
2021/09/24 10:34:06;;;;;;;;;16.00;13.00;;;;;26.50;46.56;101678.09;4989096;28;45451;-71
2021/09/24 10:36:45;;;;;;;;;15.50;11.00;;;;;26.31;46.68;101680.81;5014372;28;45578;-71
2021/09/24 10:39:28;;;;;;;;;15.00;13.00;;;;;26.06;47.13;101684.97;5013925;28;45732;-71
2021/09/24 10:42:27;;;;;;;;;12.50;11.50;;;;;25.89;47.86;101682.00;5012844;28;45594;-71
2021/09/24 10:45:05;;;;;;;;;15.75;13.25;;;;;25.74;48.10;101683.41;5012998;28;45576;-71
2021/09/24 10:47:44;;;;;;;;;13.75;13.00;;;;;25.69;47.94;101677.59;5013279;28;45393;-71
2021/09/24 10:50:36;;;;;;;;;15.50;14.25;;;;;25.86;48.55;101678.75;5013229;28;45601;-71
2021/09/24 10:53:08;;;;;;;;;16.25;14.75;;;;;25.90;48.04;101674.78;5010176;28;46535;-73
2021/09/24 10:55:46;;;;;;;;;14.00;13.75;;;;;25.84;47.76;101664.56;5008795;28;45694;-73
2021/09/24 10:58:27;;;;;;;;;20.75;14.25;;;;;25.76;47.89;101666.13;5004193;28;45567;-73
2021/09/24 11:00:56;;;;;;;;;15.00;13.25;;;;;25.71;48.07;101657.59;5010060;28;45450;-73
2021/09/24 11:03:23;;;;;;;;;21.00;14.75;;;;;25.77;48.71;101657.06;5008462;28;47063;-72
2021/09/24 11:06:05;;;;;;;;;15.25;13.50;;;;;25.94;48.59;101658.16;5008435;28;45445;-72
2021/09/24 11:08:37;;;;;;;;;16.75;15.75;;;;;26.35;47.80;101661.50;4988965;28;46601;-73
2021/09/24 11:11:21;;;;;;;;;18.00;13.50;;;;;26.62;47.63;101643.69;4990327;28;45535;-72